createdAt,value
2023-02-03T00:00:03.158Z,83.81
2023-02-03T00:02:59.321Z,83.29
2023-02-03T00:05:27.729Z,82.79
2023-02-03T00:07:56.214Z,81.54
2023-02-03T00:10:24.594Z,81.29
2023-02-03T00:12:56.417Z,81.59
2023-02-03T00:15:24.077Z,81.92
2023-02-03T00:17:52.022Z,81.83
2023-02-03T00:20:20.047Z,81.03
2023-02-03T00:22:48.018Z,81.36
2023-02-03T00:25:15.878Z,81.01
2023-02-03T00:27:44.686Z,80.36
2023-02-03T00:30:13.262Z,79.79
2023-02-03T00:32:41.282Z,80.71
2023-02-03T00:35:09.049Z,80.91
2023-02-03T00:37:37.940Z,80.49
2023-02-03T00:40:06.207Z,81.59
2023-02-03T00:42:37.300Z,82.31
2023-02-03T00:45:06.291Z,81.59
2023-02-03T00:47:34.389Z,80.88
2023-02-03T00:50:02.187Z,80.72
2023-02-03T00:52:30.220Z,80.80
2023-02-03T00:54:58.184Z,81.63
2023-02-03T00:57:26.246Z,81.58
2023-02-03T00:59:55.191Z,80.39
2023-02-03T01:02:23.396Z,79.61
2023-02-03T01:04:53.368Z,79.15
2023-02-03T01:07:21.669Z,78.31
2023-02-03T01:09:49.920Z,77.50
2023-02-03T01:12:17.959Z,78.82
2023-02-03T01:14:45.670Z,77.60
2023-02-03T01:17:13.651Z,77.95
2023-02-03T01:19:41.305Z,77.08
2023-02-03T01:22:09.310Z,80.38
2023-02-03T01:24:37.025Z,81.03
2023-02-03T01:27:06.781Z,79.69
2023-02-03T01:29:34.750Z,79.22
2023-02-03T01:32:03.304Z,79.32
2023-02-03T01:34:31.179Z,80.10
2023-02-03T01:37:00.569Z,80.53
2023-02-03T01:39:29.300Z,80.88
2023-02-03T01:41:57.689Z,81.42
2023-02-03T01:44:47.644Z,80.52
2023-02-03T01:47:36.441Z,80.43
2023-02-03T01:50:29.507Z,79.25
2023-02-03T01:53:02.238Z,79.79
2023-02-03T01:55:50.734Z,79.96
2023-02-03T01:58:24.970Z,78.74
2023-02-03T02:00:54.405Z,79.07
2023-02-03T02:03:40.611Z,78.90
2023-02-03T02:06:11.308Z,79.41
2023-02-03T02:08:45.344Z,78.25
2023-02-03T02:11:13.516Z,78.39
2023-02-03T02:13:44.460Z,78.35
2023-02-03T02:16:42.743Z,78.01
2023-02-03T02:19:20.001Z,79.59
2023-02-03T02:22:06.052Z,81.35
2023-02-03T02:24:55.183Z,81.54
2023-02-03T02:28:04.363Z,81.60
2023-02-03T02:30:52.084Z,81.38
2023-02-03T02:33:58.274Z,81.10
2023-02-03T02:36:33.468Z,79.85
2023-02-03T02:39:15.663Z,81.38
2023-02-03T02:41:56.550Z,81.81
2023-02-03T02:44:32.280Z,83.43
2023-02-03T02:47:07.190Z,83.23
2023-02-03T02:49:46.696Z,83.21
2023-02-03T02:52:17.233Z,83.90
2023-02-03T02:54:51.592Z,83.02
2023-02-03T02:57:22.595Z,85.00
2023-02-03T02:59:50.614Z,84.91
2023-02-03T03:02:19.136Z,84.45
2023-02-03T03:04:50.114Z,84.39
2023-02-03T03:07:25.552Z,84.90
2023-02-03T03:10:03.174Z,84.91
2023-02-03T03:12:37.519Z,85.38
2023-02-03T03:15:10.814Z,84.62
2023-02-03T03:20:25.433Z,84.96
2023-02-03T03:23:01.873Z,83.67
2023-02-03T03:25:39.638Z,84.35
2023-02-03T03:28:13.865Z,83.61
2023-02-03T03:30:42.287Z,83.88
2023-02-03T03:33:10.884Z,84.13
2023-02-03T03:35:55.105Z,84.00
2023-02-03T03:38:46.512Z,84.67
2023-02-03T03:41:36.751Z,84.35
2023-02-03T03:44:09.692Z,82.71
2023-02-03T03:46:48.257Z,83.07
2023-02-03T03:49:19.113Z,81.60
2023-02-03T03:51:52.121Z,82.16
2023-02-03T03:54:24.107Z,82.69
2023-02-03T03:57:00.296Z,82.84
2023-02-03T03:59:33.531Z,81.67
2023-02-03T04:02:05.024Z,80.32
2023-02-03T04:04:36.914Z,81.18
2023-02-03T04:07:04.965Z,82.07
2023-02-03T04:09:36.725Z,83.16
2023-02-03T04:12:06.733Z,82.86
2023-02-03T04:14:40.062Z,82.85
2023-02-03T04:17:09.702Z,83.15
2023-02-03T04:19:37.940Z,81.65
2023-02-03T04:22:06.993Z,81.87
2023-02-03T04:24:35.271Z,81.33
2023-02-03T04:27:05.140Z,81.98
2023-02-03T04:29:33.782Z,82.17
2023-02-03T04:32:01.680Z,82.33
2023-02-03T04:34:29.924Z,81.25
2023-02-03T04:36:57.757Z,81.70
2023-02-03T04:39:25.962Z,81.00
2023-02-03T04:41:53.841Z,81.98
2023-02-03T04:44:22.045Z,83.68
2023-02-03T04:46:49.909Z,84.60
2023-02-03T04:49:18.292Z,85.04
2023-02-03T04:51:49.481Z,85.44
2023-02-03T04:54:17.940Z,84.51
2023-02-03T04:56:45.822Z,84.78
2023-02-03T04:59:14.062Z,84.23
2023-02-03T05:01:42.006Z,83.55
2023-02-03T05:04:10.386Z,84.39
2023-02-03T05:06:38.322Z,83.92
2023-02-03T05:09:06.885Z,84.34
2023-02-03T05:11:34.876Z,84.19
2023-02-03T05:14:03.531Z,84.12
2023-02-03T05:16:31.451Z,84.72
2023-02-03T05:18:59.754Z,84.23
2023-02-03T05:21:27.605Z,85.10
2023-02-03T05:23:55.797Z,84.22
2023-02-03T05:26:23.692Z,86.82
2023-02-03T05:28:53.177Z,87.68
2023-02-03T05:31:21.679Z,88.14
2023-02-03T05:33:49.933Z,88.38
2023-02-03T05:36:17.804Z,88.61
2023-02-03T05:38:46.052Z,87.63
2023-02-03T05:41:32.418Z,87.18
2023-02-03T05:44:00.704Z,87.34
2023-02-03T05:46:28.759Z,86.03
2023-02-03T05:48:56.496Z,86.28
2023-02-03T05:51:25.257Z,88.35
2023-02-03T05:53:54.187Z,89.40
2023-02-03T05:56:22.544Z,89.71
2023-02-03T05:58:53.551Z,90.57
2023-02-03T06:01:22.080Z,92.15
2023-02-03T06:03:50.217Z,90.92
2023-02-03T06:06:18.685Z,93.08
2023-02-03T06:08:46.562Z,94.51
2023-02-03T06:11:14.833Z,93.45
2023-02-03T06:13:42.701Z,93.74
2023-02-03T06:16:10.990Z,95.10
2023-02-03T06:18:38.922Z,96.33
2023-02-03T06:21:07.094Z,97.19
2023-02-03T06:23:35.034Z,99.10
2023-02-03T06:26:03.244Z,99.08
2023-02-03T06:28:33.885Z,98.70
2023-02-03T06:31:02.259Z,96.83
2023-02-03T06:33:30.659Z,97.51
2023-02-03T06:35:59.293Z,95.90
2023-02-03T06:38:27.270Z,94.46
2023-02-03T06:40:55.488Z,95.62
2023-02-03T06:43:23.410Z,95.78
2023-02-03T06:45:51.729Z,96.63
2023-02-03T06:48:19.607Z,97.30
2023-02-03T06:50:48.846Z,99.71
2023-02-03T06:53:17.301Z,99.59
2023-02-03T06:55:45.562Z,97.99
2023-02-03T06:58:13.421Z,100.00
2023-02-03T07:00:41.582Z,100.00
2023-02-03T07:03:09.472Z,100.00
2023-02-03T07:05:38.017Z,100.00
2023-02-03T07:08:06.072Z,100.00
2023-02-03T07:10:34.314Z,100.00
2023-02-03T07:13:04.186Z,100.00
2023-02-03T07:15:32.522Z,100.00
2023-02-03T07:18:00.351Z,100.00
2023-02-03T07:20:29.786Z,100.00
2023-02-03T07:22:58.441Z,100.00
2023-02-03T07:25:26.652Z,100.00
2023-02-03T07:27:54.965Z,100.00
2023-02-03T07:30:23.394Z,100.00
2023-02-03T07:32:52.869Z,100.00
2023-02-03T07:35:21.802Z,100.00
2023-02-03T07:37:49.631Z,100.00
2023-02-03T07:40:18.145Z,100.00
2023-02-03T07:42:50.289Z,100.00
2023-02-03T07:45:19.171Z,100.00
2023-02-03T07:47:46.937Z,100.00
2023-02-03T07:50:15.183Z,100.00
2023-02-03T07:52:42.973Z,100.00
2023-02-03T07:55:11.535Z,100.00
2023-02-03T07:57:43.851Z,100.00
2023-02-03T08:00:14.538Z,100.00
2023-02-03T08:02:43.573Z,100.00
2023-02-03T08:05:12.847Z,100.00
2023-02-03T08:07:41.604Z,100.00
2023-02-03T08:10:12.434Z,100.00
2023-02-03T08:12:40.479Z,100.00
2023-02-03T08:15:08.829Z,100.00
2023-02-03T08:17:40.256Z,100.00
2023-02-03T08:20:11.761Z,100.00
2023-02-03T08:22:39.857Z,100.00
2023-02-03T08:25:08.436Z,100.00
2023-02-03T08:27:36.641Z,100.00
2023-02-03T08:30:05.769Z,100.00
2023-02-03T08:32:34.613Z,100.00
2023-02-03T08:35:02.480Z,100.00
2023-02-03T08:37:32.843Z,100.00
2023-02-03T08:40:00.798Z,100.00
2023-02-03T08:42:29.076Z,100.00
2023-02-03T08:44:56.975Z,100.00
2023-02-03T08:47:26.119Z,100.00
2023-02-03T08:49:53.950Z,100.00
2023-02-03T08:52:22.814Z,100.00
2023-02-03T08:54:50.780Z,100.00
2023-02-03T08:57:19.087Z,100.00
2023-02-03T08:59:47.132Z,100.00
2023-02-03T09:02:18.157Z,100.00
2023-02-03T09:04:47.646Z,100.00
2023-02-03T09:07:16.945Z,100.00
2023-02-03T09:09:44.924Z,100.00
2023-02-03T09:12:13.598Z,100.00
2023-02-03T09:14:41.462Z,100.00
2023-02-03T09:17:12.118Z,100.00
2023-02-03T09:19:40.071Z,100.00
2023-02-03T09:22:08.604Z,100.00
2023-02-03T09:24:36.543Z,100.00
2023-02-03T09:27:05.074Z,100.00
2023-02-03T09:29:33.006Z,100.00
2023-02-03T09:32:07.111Z,100.00
2023-02-03T09:34:34.862Z,98.93
2023-02-03T09:37:04.576Z,100.00
2023-02-03T09:39:32.581Z,99.95
2023-02-03T09:42:13.599Z,98.22
2023-02-03T09:44:59.478Z,97.81
2023-02-03T09:47:32.861Z,95.01
2023-02-03T09:50:05.378Z,95.42
2023-02-03T09:52:40.096Z,95.56
2023-02-03T09:55:25.242Z,95.72
2023-02-03T09:57:57.603Z,88.38
2023-02-03T10:00:30.667Z,85.62
2023-02-03T10:03:01.595Z,84.81
2023-02-03T10:06:01.850Z,89.08
2023-02-03T10:08:42.015Z,88.21
2023-02-03T10:11:24.860Z,88.04
2023-02-03T10:14:01.009Z,89.69
2023-02-03T10:16:50.625Z,90.54
2023-02-03T10:19:27.609Z,89.82
2023-02-03T10:22:00.700Z,85.03
2023-02-03T10:24:56.699Z,85.25
2023-02-03T10:27:26.441Z,84.83
2023-02-03T10:30:22.732Z,82.41
2023-02-03T10:33:09.297Z,82.16
2023-02-03T10:35:52.146Z,81.41
2023-02-03T10:38:44.519Z,79.17
2023-02-03T10:41:13.619Z,79.28
2023-02-03T10:43:47.730Z,80.09
2023-02-03T10:46:21.326Z,80.62
2023-02-03T10:48:49.798Z,79.83
2023-02-03T10:51:37.118Z,80.27
2023-02-03T10:54:05.539Z,78.77
2023-02-03T10:56:38.198Z,81.85
2023-02-03T10:59:07.778Z,79.61
2023-02-03T11:01:45.491Z,77.82
2023-02-03T11:04:27.104Z,81.56
2023-02-03T11:07:06.346Z,81.77
2023-02-03T11:09:37.789Z,77.89
2023-02-03T11:12:17.260Z,78.62
2023-02-03T11:14:50.023Z,75.93
2023-02-03T11:17:30.981Z,77.90
2023-02-03T11:20:19.428Z,75.97
2023-02-03T11:22:49.719Z,75.67
2023-02-03T11:25:22.936Z,78.47
2023-02-03T11:27:51.627Z,78.17
2023-02-03T11:30:27.904Z,79.14
2023-02-03T11:32:57.499Z,77.07
2023-02-03T11:35:30.108Z,76.91
2023-02-03T11:38:01.068Z,75.71
2023-02-03T11:40:38.719Z,76.66
2023-02-03T11:43:18.212Z,74.13
2023-02-03T11:45:49.205Z,74.46
2023-02-03T11:48:33.562Z,73.59
2023-02-03T11:51:24.967Z,72.06
2023-02-03T11:54:06.809Z,67.99
2023-02-03T11:57:10.021Z,65.32
2023-02-03T12:00:01.612Z,66.70
2023-02-03T12:03:05.605Z,64.77
2023-02-03T12:06:04.949Z,63.05
2023-02-03T12:08:52.399Z,64.93
2023-02-03T12:11:39.229Z,66.45
2023-02-03T12:14:31.609Z,66.66
2023-02-03T12:17:23.961Z,63.62
2023-02-03T12:20:06.875Z,62.14
2023-02-03T12:22:51.000Z,62.96
2023-02-03T12:25:50.302Z,58.79
2023-02-03T12:28:41.677Z,61.67
2023-02-03T12:31:51.122Z,61.13
2023-02-03T12:34:32.429Z,61.91
2023-02-03T12:37:10.562Z,59.26
2023-02-03T12:39:44.810Z,61.26
2023-02-03T12:42:21.270Z,62.20
2023-02-03T12:45:00.211Z,62.83
2023-02-03T12:47:37.132Z,62.81
2023-02-03T12:50:18.704Z,63.75
2023-02-03T12:53:29.254Z,64.37
2023-02-03T12:56:03.118Z,64.44
2023-02-03T12:58:42.467Z,63.95
2023-02-03T13:01:24.754Z,64.41
2023-02-03T13:04:21.619Z,62.56
2023-02-03T13:07:03.311Z,64.97
2023-02-03T13:09:49.351Z,62.66
2023-02-03T13:12:29.449Z,63.72
2023-02-03T13:15:24.932Z,63.44
2023-02-03T13:18:26.686Z,65.86
2023-02-03T13:20:57.665Z,66.05
2023-02-03T13:23:26.785Z,67.74
2023-02-03T13:26:13.519Z,68.14
2023-02-03T13:29:02.056Z,68.73
2023-02-03T13:32:00.840Z,66.04
2023-02-03T13:34:45.817Z,66.54
2023-02-03T13:37:25.643Z,68.40
2023-02-03T13:40:06.968Z,66.22
2023-02-03T13:42:41.026Z,64.37
2023-02-03T13:45:24.068Z,64.36
2023-02-03T13:47:56.521Z,63.36
2023-02-03T13:50:29.260Z,58.49
2023-02-03T13:53:03.191Z,62.83
2023-02-03T13:55:54.947Z,64.97
2023-02-03T13:58:30.666Z,62.50
2023-02-03T14:01:29.507Z,60.73
2023-02-03T14:03:58.716Z,59.49
2023-02-03T14:06:52.897Z,59.05
2023-02-03T14:09:31.772Z,57.54
2023-02-03T14:12:32.789Z,58.20
2023-02-03T14:15:14.047Z,57.47
2023-02-03T14:17:42.332Z,60.11
2023-02-03T14:20:43.834Z,60.59
2023-02-03T14:23:19.726Z,60.69
2023-02-03T14:25:55.958Z,61.06
2023-02-03T14:28:28.776Z,62.48
2023-02-03T14:31:12.801Z,63.44
2023-02-03T14:33:59.068Z,61.73
2023-02-03T14:36:34.069Z,62.28
2023-02-03T14:39:27.835Z,65.73
2023-02-03T14:42:13.676Z,64.89
2023-02-03T14:45:07.355Z,64.54
2023-02-03T14:47:42.257Z,63.08
2023-02-03T14:50:49.156Z,61.32
2023-02-03T14:54:01.378Z,63.11
2023-02-03T14:56:55.401Z,61.55
2023-02-03T14:59:26.678Z,64.81
2023-02-03T15:02:04.260Z,66.04
2023-02-03T15:04:32.103Z,71.85
2023-02-03T15:07:00.325Z,73.58
2023-02-03T15:09:37.446Z,78.54
2023-02-03T15:12:26.412Z,82.28
2023-02-03T15:14:54.539Z,81.66
2023-02-03T15:17:25.659Z,82.42
2023-02-03T15:19:54.084Z,85.01
2023-02-03T15:22:28.038Z,85.96
2023-02-03T15:24:59.313Z,85.38
2023-02-03T15:27:30.267Z,88.25
2023-02-03T15:29:59.496Z,88.56
2023-02-03T15:32:35.511Z,86.67
2023-02-03T15:35:07.451Z,87.52
2023-02-03T15:37:41.561Z,86.44
2023-02-03T15:40:09.357Z,89.38
2023-02-03T15:43:03.617Z,88.04
2023-02-03T15:45:46.127Z,87.57
2023-02-03T15:48:44.669Z,89.74
2023-02-03T15:51:44.330Z,86.11
2023-02-03T15:54:24.780Z,85.49
2023-02-03T15:57:00.125Z,85.15
2023-02-03T15:59:37.295Z,86.78
2023-02-03T16:02:31.729Z,85.61
2023-02-03T16:05:19.627Z,85.34
2023-02-03T16:07:47.477Z,84.93
2023-02-03T16:10:31.823Z,83.94
2023-02-03T16:13:18.200Z,85.12
2023-02-03T16:16:04.099Z,86.18
2023-02-03T16:18:36.287Z,86.14
2023-02-03T16:21:05.858Z,85.81
2023-02-03T16:23:33.998Z,86.28
2023-02-03T16:26:26.643Z,85.54
2023-02-03T16:29:27.277Z,86.22
2023-02-03T16:32:14.887Z,87.40
2023-02-03T16:35:01.595Z,89.38
2023-02-03T16:37:51.917Z,89.91
2023-02-03T16:40:41.406Z,91.47
2023-02-03T16:43:31.905Z,90.26
2023-02-03T16:46:19.505Z,90.62
2023-02-03T16:49:06.272Z,90.55
2023-02-03T16:51:39.870Z,90.06
2023-02-03T16:54:18.563Z,88.54
2023-02-03T16:56:46.416Z,89.50
2023-02-03T16:59:14.618Z,92.47
2023-02-03T17:01:42.518Z,92.39
2023-02-03T17:04:11.876Z,92.51
2023-02-03T17:06:41.448Z,95.56
2023-02-03T17:09:10.025Z,95.45
2023-02-03T17:11:37.928Z,93.80
2023-02-03T17:14:06.251Z,96.67
2023-02-03T17:16:34.213Z,95.88
2023-02-03T17:19:02.751Z,95.58
2023-02-03T17:21:31.196Z,97.82
2023-02-03T17:24:00.890Z,99.54
2023-02-03T17:26:28.849Z,100.00
2023-02-03T17:29:03.622Z,100.00
2023-02-03T17:31:32.458Z,99.71
2023-02-03T17:34:00.867Z,100.00
2023-02-03T17:36:28.799Z,100.00
2023-02-03T17:55:34.406Z,100.00
2023-02-03T17:58:02.510Z,100.00
2023-02-03T18:00:31.411Z,100.00
2023-02-03T18:02:59.462Z,100.00
2023-02-03T18:05:29.078Z,100.00
2023-02-03T18:07:57.013Z,100.00
2023-02-03T18:10:25.564Z,100.00
2023-02-03T18:12:53.514Z,100.00
2023-02-03T18:15:21.655Z,100.00
2023-02-03T18:17:49.468Z,100.00
2023-02-03T18:20:17.993Z,100.00
2023-02-03T18:22:45.879Z,100.00
2023-02-03T18:25:17.391Z,100.00
2023-02-03T18:27:45.348Z,100.00
2023-02-03T18:30:15.233Z,100.00
2023-02-03T18:32:43.126Z,100.00
2023-02-03T18:35:14.155Z,100.00
2023-02-03T18:37:42.004Z,100.00
2023-02-03T18:40:12.763Z,100.00
2023-02-03T18:42:40.797Z,100.00
2023-02-03T18:45:09.864Z,98.83
2023-02-03T18:47:37.872Z,98.73
2023-02-03T18:50:07.028Z,98.87
2023-02-03T18:52:35.111Z,98.65
2023-02-03T18:55:03.581Z,98.29
2023-02-03T18:57:31.542Z,98.06
2023-02-03T18:59:59.848Z,97.85
2023-02-03T19:02:28.246Z,97.37
2023-02-03T19:04:56.624Z,99.91
2023-02-03T19:07:24.805Z,98.27
2023-02-03T19:09:52.902Z,97.97
2023-02-03T19:12:20.705Z,96.92
2023-02-03T19:14:48.880Z,96.34
2023-02-03T19:17:16.814Z,96.74
2023-02-03T19:19:45.018Z,97.34
2023-02-03T19:22:13.268Z,97.50
2023-02-03T19:24:41.566Z,99.35
2023-02-03T19:27:09.412Z,100.00
2023-02-03T19:29:39.183Z,100.00
2023-02-03T19:32:12.936Z,100.00
2023-02-03T19:34:41.194Z,97.46
2023-02-03T19:37:09.299Z,97.83
2023-02-03T19:39:37.563Z,97.38
2023-02-03T19:42:05.658Z,98.72
2023-02-03T19:44:34.195Z,98.53
2023-02-03T19:47:03.928Z,100.00
2023-02-03T19:49:32.218Z,100.00
2023-02-03T19:52:00.152Z,100.00
2023-02-03T19:54:28.381Z,100.00
2023-02-03T19:56:56.238Z,100.00
2023-02-03T19:59:24.529Z,100.00
2023-02-03T20:01:52.475Z,100.00
2023-02-03T20:04:20.928Z,100.00
2023-02-03T20:06:48.789Z,100.00
2023-02-03T20:09:16.998Z,100.00
2023-02-03T20:11:44.912Z,100.00
2023-02-03T20:14:13.968Z,100.00
2023-02-03T20:16:43.207Z,100.00
2023-02-03T20:19:11.746Z,100.00
2023-02-03T20:21:39.630Z,100.00
2023-02-03T20:24:07.868Z,98.50
2023-02-03T20:26:35.720Z,97.72
2023-02-03T20:29:04.068Z,99.68
2023-02-03T20:31:32.114Z,100.00
2023-02-03T20:34:00.334Z,100.00
2023-02-03T20:36:28.228Z,100.00
2023-02-03T20:38:56.741Z,100.00
2023-02-03T20:41:24.671Z,100.00
2023-02-03T20:43:52.820Z,100.00
2023-02-03T20:46:20.834Z,100.00
2023-02-03T20:48:49.365Z,100.00
2023-02-03T20:51:21.389Z,100.00
2023-02-03T20:53:50.220Z,100.00
2023-02-03T20:56:21.999Z,100.00
2023-02-03T20:58:50.335Z,100.00
2023-02-03T21:01:21.545Z,100.00
2023-02-03T21:04:08.422Z,100.00
2023-02-03T21:06:36.555Z,99.93
2023-02-03T21:09:20.080Z,99.90
2023-02-03T21:11:48.016Z,99.59
2023-02-03T21:14:22.472Z,99.78
2023-02-03T21:16:51.971Z,100.00
2023-02-03T21:19:34.157Z,100.00
2023-02-03T21:22:17.736Z,100.00
2023-02-03T21:24:49.721Z,100.00
2023-02-03T21:27:32.584Z,100.00
2023-02-03T21:30:17.674Z,100.00
2023-02-03T21:32:45.530Z,99.77
2023-02-03T21:35:39.934Z,100.00
2023-02-03T21:38:23.111Z,99.94
2023-02-03T21:40:51.383Z,99.74
2023-02-03T21:43:21.035Z,99.96
2023-02-03T21:45:49.666Z,99.91
2023-02-03T21:48:32.696Z,100.00
2023-02-03T21:51:04.106Z,100.00
2023-02-03T21:53:36.059Z,100.00
2023-02-03T21:56:22.646Z,100.00
2023-02-03T21:58:52.223Z,99.18
2023-02-03T22:01:23.065Z,99.93
2023-02-03T22:03:53.973Z,100.00
2023-02-03T22:06:28.091Z,100.00
2023-02-03T22:08:58.108Z,100.00
2023-02-03T22:11:30.130Z,100.00
2023-02-03T22:13:58.026Z,100.00
2023-02-03T22:16:26.310Z,100.00
2023-02-03T22:18:54.278Z,100.00
2023-02-03T22:21:22.507Z,100.00
2023-02-03T22:23:50.330Z,100.00
2023-02-03T22:26:19.047Z,100.00
2023-02-03T22:28:47.325Z,100.00
2023-02-03T22:31:16.239Z,100.00
2023-02-03T22:33:44.479Z,100.00
2023-02-03T22:36:13.567Z,100.00
2023-02-03T22:38:42.633Z,100.00
2023-02-03T22:41:13.324Z,100.00
2023-02-03T22:43:41.502Z,100.00
2023-02-03T22:46:09.786Z,100.00
2023-02-03T22:48:37.685Z,100.00
2023-02-03T22:51:06.331Z,100.00
2023-02-03T22:53:35.079Z,100.00
2023-02-03T22:56:03.354Z,100.00
2023-02-03T22:58:31.284Z,100.00
2023-02-03T23:00:59.664Z,100.00
2023-02-03T23:03:27.873Z,100.00
2023-02-03T23:05:56.738Z,100.00
2023-02-03T23:08:25.222Z,100.00
2023-02-03T23:10:53.467Z,100.00
2023-02-03T23:13:21.405Z,100.00
2023-02-03T23:15:49.691Z,100.00
2023-02-03T23:18:17.560Z,100.00
2023-02-03T23:20:46.009Z,100.00
2023-02-03T23:23:14.579Z,100.00
2023-02-03T23:25:42.860Z,100.00
2023-02-03T23:28:10.804Z,100.00
2023-02-03T23:30:39.054Z,100.00
2023-02-03T23:33:07.125Z,100.00
2023-02-03T23:35:47.730Z,100.00
2023-02-03T23:38:17.206Z,100.00
2023-02-03T23:40:46.000Z,100.00
2023-02-03T23:43:14.814Z,100.00
2023-02-03T23:45:43.008Z,100.00
2023-02-03T23:48:11.245Z,100.00
2023-02-03T23:50:39.565Z,100.00
2023-02-03T23:53:07.433Z,100.00
2023-02-03T23:55:36.585Z,100.00
2023-02-03T23:58:05.329Z,100.00
